sensor_id;sensor_type;location;lat;lon;timestamp;temperature;humidity
17152;DHT22;8691;50.828;4.700;2023-02-15T00:01:35;1.40;99.90
17152;DHT22;8691;50.828;4.700;2023-02-15T00:04:02;1.30;99.90
17152;DHT22;8691;50.828;4.700;2023-02-15T00:06:30;1.30;99.90
17152;DHT22;8691;50.828;4.700;2023-02-15T00:08:57;1.30;99.90
17152;DHT22;8691;50.828;4.700;2023-02-15T00:11:25;1.30;99.90
17152;DHT22;8691;50.828;4.700;2023-02-15T00:14:08;1.30;99.90
17152;DHT22;8691;50.828;4.700;2023-02-15T00:16:35;1.30;99.90
17152;DHT22;8691;50.828;4.700;2023-02-15T00:19:02;1.20;99.90
17152;DHT22;8691;50.828;4.700;2023-02-15T00:21:29;1.20;99.90
17152;DHT22;8691;50.828;4.700;2023-02-15T00:23:56;1.20;99.90
17152;DHT22;8691;50.828;4.700;2023-02-15T00:26:22;1.20;99.90
17152;DHT22;8691;50.828;4.700;2023-02-15T00:28:50;1.10;99.90
17152;DHT22;8691;50.828;4.700;2023-02-15T00:31:17;1.10;99.90
17152;DHT22;8691;50.828;4.700;2023-02-15T00:33:44;1.10;99.90
17152;DHT22;8691;50.828;4.700;2023-02-15T00:36:11;1.10;99.90
17152;DHT22;8691;50.828;4.700;2023-02-15T00:38:38;1.00;99.90
17152;DHT22;8691;50.828;4.700;2023-02-15T00:41:06;1.00;99.90
17152;DHT22;8691;50.828;4.700;2023-02-15T00:43:32;1.00;99.90
17152;DHT22;8691;50.828;4.700;2023-02-15T00:45:58;1.00;99.90
17152;DHT22;8691;50.828;4.700;2023-02-15T00:48:25;1.00;99.90
17152;DHT22;8691;50.828;4.700;2023-02-15T00:50:53;1.00;99.90
17152;DHT22;8691;50.828;4.700;2023-02-15T00:53:19;1.00;99.90
17152;DHT22;8691;50.828;4.700;2023-02-15T00:55:46;1.00;99.90
17152;DHT22;8691;50.828;4.700;2023-02-15T00:58:13;1.00;99.90
17152;DHT22;8691;50.828;4.700;2023-02-15T01:00:40;1.00;99.90
17152;DHT22;8691;50.828;4.700;2023-02-15T01:03:07;1.00;99.90
17152;DHT22;8691;50.828;4.700;2023-02-15T01:05:34;1.00;99.90
17152;DHT22;8691;50.828;4.700;2023-02-15T01:08:01;1.00;99.90
17152;DHT22;8691;50.828;4.700;2023-02-15T01:10:28;1.00;99.90
17152;DHT22;8691;50.828;4.700;2023-02-15T01:12:55;1.00;99.90
17152;DHT22;8691;50.828;4.700;2023-02-15T01:15:21;1.10;99.90
17152;DHT22;8691;50.828;4.700;2023-02-15T01:17:48;1.10;99.90
17152;DHT22;8691;50.828;4.700;2023-02-15T01:20:19;1.00;99.90
17152;DHT22;8691;50.828;4.700;2023-02-15T01:22:44;1.00;99.90
17152;DHT22;8691;50.828;4.700;2023-02-15T01:25:11;0.90;99.90
17152;DHT22;8691;50.828;4.700;2023-02-15T01:27:38;0.90;99.90
17152;DHT22;8691;50.828;4.700;2023-02-15T01:30:05;0.80;99.90
17152;DHT22;8691;50.828;4.700;2023-02-15T01:32:32;0.80;99.90
17152;DHT22;8691;50.828;4.700;2023-02-15T01:34:59;0.70;99.90
17152;DHT22;8691;50.828;4.700;2023-02-15T01:37:26;0.70;99.90
17152;DHT22;8691;50.828;4.700;2023-02-15T01:39:53;0.70;99.90
17152;DHT22;8691;50.828;4.700;2023-02-15T01:42:26;0.70;99.90
17152;DHT22;8691;50.828;4.700;2023-02-15T01:45:00;0.70;99.90
17152;DHT22;8691;50.828;4.700;2023-02-15T01:47:34;0.70;99.90
17152;DHT22;8691;50.828;4.700;2023-02-15T01:50:22;0.70;99.90
17152;DHT22;8691;50.828;4.700;2023-02-15T01:52:25;0.60;99.90
17152;DHT22;8691;50.828;4.700;2023-02-15T01:54:52;0.50;99.90
17152;DHT22;8691;50.828;4.700;2023-02-15T01:57:19;0.50;99.90
17152;DHT22;8691;50.828;4.700;2023-02-15T01:59:46;0.50;99.90
17152;DHT22;8691;50.828;4.700;2023-02-15T02:02:13;0.50;99.90
17152;DHT22;8691;50.828;4.700;2023-02-15T02:04:47;0.50;99.90
17152;DHT22;8691;50.828;4.700;2023-02-15T02:07:12;0.50;99.90
17152;DHT22;8691;50.828;4.700;2023-02-15T02:09:39;0.40;99.90
17152;DHT22;8691;50.828;4.700;2023-02-15T02:12:06;0.40;99.90
17152;DHT22;8691;50.828;4.700;2023-02-15T02:14:32;0.40;99.90
17152;DHT22;8691;50.828;4.700;2023-02-15T02:17:05;0.40;99.90
17152;DHT22;8691;50.828;4.700;2023-02-15T02:25:36;0.30;99.90
17152;DHT22;8691;50.828;4.700;2023-02-15T02:31:10;0.30;99.90
17152;DHT22;8691;50.828;4.700;2023-02-15T02:42:23;0.20;99.90
17152;DHT22;8691;50.828;4.700;2023-02-15T02:44:53;0.10;99.90
17152;DHT22;8691;50.828;4.700;2023-02-15T02:47:19;0.10;99.90
17152;DHT22;8691;50.828;4.700;2023-02-15T02:49:45;0.10;99.90
17152;DHT22;8691;50.828;4.700;2023-02-15T02:52:37;0.10;99.90
17152;DHT22;8691;50.828;4.700;2023-02-15T02:57:36;0.00;99.90
17152;DHT22;8691;50.828;4.700;2023-02-15T03:00:03;0.00;99.90
17152;DHT22;8691;50.828;4.700;2023-02-15T03:02:32;0.10;99.90
17152;DHT22;8691;50.828;4.700;2023-02-15T03:05:01;0.20;99.90
17152;DHT22;8691;50.828;4.700;2023-02-15T03:07:26;0.10;99.90
17152;DHT22;8691;50.828;4.700;2023-02-15T03:09:53;0.10;99.90
17152;DHT22;8691;50.828;4.700;2023-02-15T03:12:31;0.10;99.90
17152;DHT22;8691;50.828;4.700;2023-02-15T03:15:09;0.10;99.90
17152;DHT22;8691;50.828;4.700;2023-02-15T03:17:36;0.10;99.90
17152;DHT22;8691;50.828;4.700;2023-02-15T03:20:04;0.10;99.90
17152;DHT22;8691;50.828;4.700;2023-02-15T03:22:38;0.10;99.90
17152;DHT22;8691;50.828;4.700;2023-02-15T03:25:06;0.10;99.90
17152;DHT22;8691;50.828;4.700;2023-02-15T03:27:32;0.10;99.90
17152;DHT22;8691;50.828;4.700;2023-02-15T03:29:58;0.10;99.90
17152;DHT22;8691;50.828;4.700;2023-02-15T03:32:25;0.00;99.90
17152;DHT22;8691;50.828;4.700;2023-02-15T03:34:52;0.00;99.90
17152;DHT22;8691;50.828;4.700;2023-02-15T03:37:29;0.00;99.90
17152;DHT22;8691;50.828;4.700;2023-02-15T03:40:02;0.00;99.90
17152;DHT22;8691;50.828;4.700;2023-02-15T03:42:31;0.00;99.90
17152;DHT22;8691;50.828;4.700;2023-02-15T03:45:02;-0.10;99.90
17152;DHT22;8691;50.828;4.700;2023-02-15T03:47:31;-0.20;99.90
17152;DHT22;8691;50.828;4.700;2023-02-15T03:50:10;-0.20;99.90
17152;DHT22;8691;50.828;4.700;2023-02-15T03:52:35;-0.20;99.90
17152;DHT22;8691;50.828;4.700;2023-02-15T03:55:02;-0.20;99.90
17152;DHT22;8691;50.828;4.700;2023-02-15T03:57:29;-0.20;99.90
17152;DHT22;8691;50.828;4.700;2023-02-15T04:00:17;-0.30;99.90
17152;DHT22;8691;50.828;4.700;2023-02-15T04:03:28;-0.30;99.90
17152;DHT22;8691;50.828;4.700;2023-02-15T04:05:53;-0.30;99.90
17152;DHT22;8691;50.828;4.700;2023-02-15T04:08:20;-0.30;99.90
17152;DHT22;8691;50.828;4.700;2023-02-15T04:10:46;-0.30;99.90
17152;DHT22;8691;50.828;4.700;2023-02-15T04:13:23;-0.30;99.90
17152;DHT22;8691;50.828;4.700;2023-02-15T04:15:49;-0.30;99.90
17152;DHT22;8691;50.828;4.700;2023-02-15T04:18:41;-0.30;99.90
17152;DHT22;8691;50.828;4.700;2023-02-15T04:21:26;-0.30;99.90
17152;DHT22;8691;50.828;4.700;2023-02-15T04:24:10;-0.30;99.90
17152;DHT22;8691;50.828;4.700;2023-02-15T04:26:55;-0.40;99.90
17152;DHT22;8691;50.828;4.700;2023-02-15T04:29:22;-0.40;99.90
17152;DHT22;8691;50.828;4.700;2023-02-15T04:31:49;-0.50;99.90
17152;DHT22;8691;50.828;4.700;2023-02-15T04:34:16;-0.50;99.90
17152;DHT22;8691;50.828;4.700;2023-02-15T04:36:43;-0.50;99.90
17152;DHT22;8691;50.828;4.700;2023-02-15T04:39:12;-0.50;99.90
17152;DHT22;8691;50.828;4.700;2023-02-15T04:41:36;-0.50;99.90
17152;DHT22;8691;50.828;4.700;2023-02-15T04:44:03;-0.50;99.90
17152;DHT22;8691;50.828;4.700;2023-02-15T04:46:30;-0.50;99.90
17152;DHT22;8691;50.828;4.700;2023-02-15T04:48:57;-0.50;99.90
17152;DHT22;8691;50.828;4.700;2023-02-15T04:51:24;-0.50;99.90
17152;DHT22;8691;50.828;4.700;2023-02-15T04:53:51;-0.50;99.90
17152;DHT22;8691;50.828;4.700;2023-02-15T04:56:18;-0.40;99.90
17152;DHT22;8691;50.828;4.700;2023-02-15T04:58:45;-0.40;99.90
17152;DHT22;8691;50.828;4.700;2023-02-15T05:01:12;-0.40;99.90
17152;DHT22;8691;50.828;4.700;2023-02-15T05:03:38;-0.40;99.90
17152;DHT22;8691;50.828;4.700;2023-02-15T05:06:06;-0.50;99.90
17152;DHT22;8691;50.828;4.700;2023-02-15T05:08:33;-0.50;99.90
17152;DHT22;8691;50.828;4.700;2023-02-15T05:11:00;-0.50;99.90
17152;DHT22;8691;50.828;4.700;2023-02-15T05:13:27;-0.40;99.90
17152;DHT22;8691;50.828;4.700;2023-02-15T05:15:54;-0.50;99.90
17152;DHT22;8691;50.828;4.700;2023-02-15T05:18:20;-0.50;99.90
17152;DHT22;8691;50.828;4.700;2023-02-15T05:20:47;-0.50;99.90
17152;DHT22;8691;50.828;4.700;2023-02-15T05:23:14;-0.50;99.90
17152;DHT22;8691;50.828;4.700;2023-02-15T05:25:41;-0.60;99.90
17152;DHT22;8691;50.828;4.700;2023-02-15T05:28:26;-0.60;99.90
17152;DHT22;8691;50.828;4.700;2023-02-15T05:31:06;-0.70;99.90
17152;DHT22;8691;50.828;4.700;2023-02-15T05:33:31;-0.70;99.90
17152;DHT22;8691;50.828;4.700;2023-02-15T05:35:58;-0.60;99.90
17152;DHT22;8691;50.828;4.700;2023-02-15T05:38:25;-0.60;99.90
17152;DHT22;8691;50.828;4.700;2023-02-15T05:40:52;-0.60;99.90
17152;DHT22;8691;50.828;4.700;2023-02-15T05:43:19;-0.60;99.90
17152;DHT22;8691;50.828;4.700;2023-02-15T05:45:49;-0.60;99.90
17152;DHT22;8691;50.828;4.700;2023-02-15T05:48:15;-0.60;99.90
17152;DHT22;8691;50.828;4.700;2023-02-15T05:50:42;-0.60;99.90
17152;DHT22;8691;50.828;4.700;2023-02-15T05:53:09;-0.60;99.90
17152;DHT22;8691;50.828;4.700;2023-02-15T05:55:39;-0.60;99.90
17152;DHT22;8691;50.828;4.700;2023-02-15T05:58:05;-0.60;99.90
17152;DHT22;8691;50.828;4.700;2023-02-15T06:00:33;-0.60;99.90
17152;DHT22;8691;50.828;4.700;2023-02-15T06:03:00;-0.60;99.90
17152;DHT22;8691;50.828;4.700;2023-02-15T06:05:27;-0.60;99.90
17152;DHT22;8691;50.828;4.700;2023-02-15T06:07:54;-0.70;99.90
17152;DHT22;8691;50.828;4.700;2023-02-15T06:10:21;-0.60;99.90
17152;DHT22;8691;50.828;4.700;2023-02-15T06:12:48;-0.60;99.90
17152;DHT22;8691;50.828;4.700;2023-02-15T06:15:16;-0.60;99.90
17152;DHT22;8691;50.828;4.700;2023-02-15T06:17:43;-0.60;99.90
17152;DHT22;8691;50.828;4.700;2023-02-15T06:20:10;-0.60;99.90
17152;DHT22;8691;50.828;4.700;2023-02-15T06:22:36;-0.60;99.90
17152;DHT22;8691;50.828;4.700;2023-02-15T06:25:03;-0.60;99.90
17152;DHT22;8691;50.828;4.700;2023-02-15T06:27:30;-0.60;99.90
17152;DHT22;8691;50.828;4.700;2023-02-15T06:29:57;-0.70;99.90
17152;DHT22;8691;50.828;4.700;2023-02-15T06:32:24;-0.70;99.90
17152;DHT22;8691;50.828;4.700;2023-02-15T06:34:51;-0.70;99.90
17152;DHT22;8691;50.828;4.700;2023-02-15T06:37:17;-0.70;99.90
17152;DHT22;8691;50.828;4.700;2023-02-15T06:39:45;-0.70;99.90
17152;DHT22;8691;50.828;4.700;2023-02-15T06:42:12;-0.70;99.90
17152;DHT22;8691;50.828;4.700;2023-02-15T06:44:40;-0.60;99.90
17152;DHT22;8691;50.828;4.700;2023-02-15T06:47:07;-0.60;99.90
17152;DHT22;8691;50.828;4.700;2023-02-15T06:49:33;-0.50;99.90
17152;DHT22;8691;50.828;4.700;2023-02-15T06:52:00;-0.50;99.90
17152;DHT22;8691;50.828;4.700;2023-02-15T06:54:28;-0.50;99.90
17152;DHT22;8691;50.828;4.700;2023-02-15T06:56:55;-0.50;99.90
17152;DHT22;8691;50.828;4.700;2023-02-15T06:59:21;-0.50;99.90
17152;DHT22;8691;50.828;4.700;2023-02-15T07:01:48;-0.50;99.90
17152;DHT22;8691;50.828;4.700;2023-02-15T07:04:15;-0.50;99.90
17152;DHT22;8691;50.828;4.700;2023-02-15T07:06:42;-0.50;99.90
17152;DHT22;8691;50.828;4.700;2023-02-15T07:09:09;-0.40;99.90
17152;DHT22;8691;50.828;4.700;2023-02-15T07:11:36;-0.30;99.90
17152;DHT22;8691;50.828;4.700;2023-02-15T07:14:21;-0.30;99.90
17152;DHT22;8691;50.828;4.700;2023-02-15T07:16:48;-0.20;99.90
17152;DHT22;8691;50.828;4.700;2023-02-15T07:19:14;0.00;99.90
17152;DHT22;8691;50.828;4.700;2023-02-15T07:21:42;0.20;99.90
17152;DHT22;8691;50.828;4.700;2023-02-15T07:24:09;0.20;99.90
17152;DHT22;8691;50.828;4.700;2023-02-15T07:26:36;0.30;99.90
17152;DHT22;8691;50.828;4.700;2023-02-15T07:29:03;0.40;99.90
17152;DHT22;8691;50.828;4.700;2023-02-15T07:31:29;0.60;99.90
17152;DHT22;8691;50.828;4.700;2023-02-15T07:33:56;0.70;99.90
17152;DHT22;8691;50.828;4.700;2023-02-15T07:36:23;0.90;99.90
17152;DHT22;8691;50.828;4.700;2023-02-15T07:38:51;1.10;99.90
17152;DHT22;8691;50.828;4.700;2023-02-15T07:41:18;1.20;99.90
17152;DHT22;8691;50.828;4.700;2023-02-15T07:43:45;1.20;99.90
17152;DHT22;8691;50.828;4.700;2023-02-15T07:46:13;1.30;99.90
17152;DHT22;8691;50.828;4.700;2023-02-15T07:48:39;1.40;99.90
17152;DHT22;8691;50.828;4.700;2023-02-15T07:51:07;1.50;99.90
17152;DHT22;8691;50.828;4.700;2023-02-15T07:53:33;1.60;99.90
17152;DHT22;8691;50.828;4.700;2023-02-15T07:56:00;1.70;99.90
17152;DHT22;8691;50.828;4.700;2023-02-15T07:58:27;1.80;99.90
17152;DHT22;8691;50.828;4.700;2023-02-15T08:00:55;1.90;99.90
17152;DHT22;8691;50.828;4.700;2023-02-15T08:03:23;1.90;99.90
17152;DHT22;8691;50.828;4.700;2023-02-15T08:05:50;2.20;99.90
17152;DHT22;8691;50.828;4.700;2023-02-15T08:08:16;2.60;99.90
17152;DHT22;8691;50.828;4.700;2023-02-15T08:11:06;3.40;99.90
17152;DHT22;8691;50.828;4.700;2023-02-15T08:13:53;3.40;99.90
17152;DHT22;8691;50.828;4.700;2023-02-15T08:16:32;3.80;99.90
17152;DHT22;8691;50.828;4.700;2023-02-15T08:18:55;4.30;99.90
17152;DHT22;8691;50.828;4.700;2023-02-15T08:21:22;4.80;99.90
17152;DHT22;8691;50.828;4.700;2023-02-15T08:23:48;5.20;99.90
17152;DHT22;8691;50.828;4.700;2023-02-15T08:26:15;5.40;99.90
17152;DHT22;8691;50.828;4.700;2023-02-15T08:28:42;5.80;99.90
17152;DHT22;8691;50.828;4.700;2023-02-15T08:31:09;6.10;99.90
17152;DHT22;8691;50.828;4.700;2023-02-15T08:33:36;6.60;99.90
17152;DHT22;8691;50.828;4.700;2023-02-15T08:36:04;7.00;99.90
17152;DHT22;8691;50.828;4.700;2023-02-15T08:38:29;7.50;99.90
17152;DHT22;8691;50.828;4.700;2023-02-15T08:40:56;7.70;99.90
17152;DHT22;8691;50.828;4.700;2023-02-15T08:43:23;8.20;99.90
17152;DHT22;8691;50.828;4.700;2023-02-15T08:45:50;8.80;99.90
17152;DHT22;8691;50.828;4.700;2023-02-15T08:48:17;9.20;99.90
17152;DHT22;8691;50.828;4.700;2023-02-15T08:50:44;9.60;99.90
17152;DHT22;8691;50.828;4.700;2023-02-15T08:53:11;9.90;99.90
17152;DHT22;8691;50.828;4.700;2023-02-15T08:55:38;10.10;99.90
17152;DHT22;8691;50.828;4.700;2023-02-15T08:58:05;10.20;99.90
17152;DHT22;8691;50.828;4.700;2023-02-15T09:00:32;10.80;99.90
17152;DHT22;8691;50.828;4.700;2023-02-15T09:03:00;11.20;99.90
17152;DHT22;8691;50.828;4.700;2023-02-15T09:05:27;11.30;99.90
17152;DHT22;8691;50.828;4.700;2023-02-15T09:07:54;11.30;99.90
17152;DHT22;8691;50.828;4.700;2023-02-15T09:10:21;11.50;99.90
17152;DHT22;8691;50.828;4.700;2023-02-15T09:12:48;11.90;99.90
17152;DHT22;8691;50.828;4.700;2023-02-15T09:15:15;12.30;99.90
17152;DHT22;8691;50.828;4.700;2023-02-15T09:17:42;12.70;99.90
17152;DHT22;8691;50.828;4.700;2023-02-15T09:20:09;12.80;99.90
17152;DHT22;8691;50.828;4.700;2023-02-15T09:22:36;12.70;99.90
17152;DHT22;8691;50.828;4.700;2023-02-15T09:25:03;12.70;99.90
17152;DHT22;8691;50.828;4.700;2023-02-15T09:27:30;12.80;99.90
17152;DHT22;8691;50.828;4.700;2023-02-15T09:29:57;12.70;99.90
17152;DHT22;8691;50.828;4.700;2023-02-15T09:32:24;12.60;99.90
17152;DHT22;8691;50.828;4.700;2023-02-15T09:34:51;12.40;99.90
17152;DHT22;8691;50.828;4.700;2023-02-15T09:37:19;12.40;99.90
17152;DHT22;8691;50.828;4.700;2023-02-15T09:39:46;12.60;99.90
17152;DHT22;8691;50.828;4.700;2023-02-15T09:42:32;12.60;99.90
17152;DHT22;8691;50.828;4.700;2023-02-15T10:01:12;14.40;99.60
17152;DHT22;8691;50.828;4.700;2023-02-15T10:03:46;14.50;99.40
17152;DHT22;8691;50.828;4.700;2023-02-15T10:14:49;14.60;99.70
17152;DHT22;8691;50.828;4.700;2023-02-15T10:25:26;15.20;98.30
17152;DHT22;8691;50.828;4.700;2023-02-15T10:27:51;15.10;98.30
17152;DHT22;8691;50.828;4.700;2023-02-15T10:30:26;15.00;97.90
17152;DHT22;8691;50.828;4.700;2023-02-15T10:33:03;15.10;97.40
17152;DHT22;8691;50.828;4.700;2023-02-15T10:38:18;15.30;96.50
17152;DHT22;8691;50.828;4.700;2023-02-15T10:43:24;15.30;96.50
17152;DHT22;8691;50.828;4.700;2023-02-15T10:45:58;15.40;96.00
17152;DHT22;8691;50.828;4.700;2023-02-15T10:48:39;15.30;96.10
17152;DHT22;8691;50.828;4.700;2023-02-15T10:51:05;15.50;96.00
17152;DHT22;8691;50.828;4.700;2023-02-15T10:53:47;15.60;95.20
17152;DHT22;8691;50.828;4.700;2023-02-15T11:01:58;15.40;95.70
17152;DHT22;8691;50.828;4.700;2023-02-15T11:04:37;15.20;95.10
17152;DHT22;8691;50.828;4.700;2023-02-15T11:07:06;14.90;95.30
17152;DHT22;8691;50.828;4.700;2023-02-15T11:09:36;14.50;96.00
17152;DHT22;8691;50.828;4.700;2023-02-15T11:12:00;14.20;96.40
17152;DHT22;8691;50.828;4.700;2023-02-15T11:14:58;13.70;97.30
17152;DHT22;8691;50.828;4.700;2023-02-15T11:17:25;13.50;97.60
17152;DHT22;8691;50.828;4.700;2023-02-15T11:20:23;13.40;98.10
17152;DHT22;8691;50.828;4.700;2023-02-15T11:22:49;13.40;98.80
17152;DHT22;8691;50.828;4.700;2023-02-15T11:25:28;13.40;98.50
17152;DHT22;8691;50.828;4.700;2023-02-15T11:27:43;13.40;98.50
17152;DHT22;8691;50.828;4.700;2023-02-15T11:30:14;13.40;98.80
17152;DHT22;8691;50.828;4.700;2023-02-15T11:32:40;13.50;98.80
17152;DHT22;8691;50.828;4.700;2023-02-15T11:35:16;13.50;99.30
17152;DHT22;8691;50.828;4.700;2023-02-15T11:37:46;13.60;99.20
17152;DHT22;8691;50.828;4.700;2023-02-15T11:40:12;13.60;98.80
17152;DHT22;8691;50.828;4.700;2023-02-15T11:42:32;13.40;99.50
17152;DHT22;8691;50.828;4.700;2023-02-15T11:45:00;13.40;99.40
17152;DHT22;8691;50.828;4.700;2023-02-15T11:47:25;13.50;99.10
17152;DHT22;8691;50.828;4.700;2023-02-15T11:49:52;13.50;99.80
17152;DHT22;8691;50.828;4.700;2023-02-15T11:52:19;13.60;99.70
17152;DHT22;8691;50.828;4.700;2023-02-15T11:54:49;13.70;99.30
17152;DHT22;8691;50.828;4.700;2023-02-15T12:00:20;13.90;98.80
17152;DHT22;8691;50.828;4.700;2023-02-15T12:02:40;13.80;98.70
17152;DHT22;8691;50.828;4.700;2023-02-15T12:05:09;13.70;99.20
17152;DHT22;8691;50.828;4.700;2023-02-15T12:07:37;13.70;98.90
17152;DHT22;8691;50.828;4.700;2023-02-15T12:10:32;13.60;99.00
17152;DHT22;8691;50.828;4.700;2023-02-15T12:13:17;13.60;99.40
17152;DHT22;8691;50.828;4.700;2023-02-15T12:15:47;13.50;99.60
17152;DHT22;8691;50.828;4.700;2023-02-15T12:18:36;13.50;99.60
17152;DHT22;8691;50.828;4.700;2023-02-15T12:21:08;13.50;99.50
17152;DHT22;8691;50.828;4.700;2023-02-15T12:23:40;13.50;99.60
17152;DHT22;8691;50.828;4.700;2023-02-15T12:26:01;13.60;99.80
17152;DHT22;8691;50.828;4.700;2023-02-15T12:28:44;13.60;99.90
17152;DHT22;8691;50.828;4.700;2023-02-15T12:31:26;13.60;99.90
17152;DHT22;8691;50.828;4.700;2023-02-15T12:33:55;13.60;99.70
17152;DHT22;8691;50.828;4.700;2023-02-15T12:36:22;13.70;99.70
17152;DHT22;8691;50.828;4.700;2023-02-15T12:39:04;13.80;99.90
17152;DHT22;8691;50.828;4.700;2023-02-15T12:41:30;13.90;99.80
17152;DHT22;8691;50.828;4.700;2023-02-15T12:44:06;14.00;99.70
17152;DHT22;8691;50.828;4.700;2023-02-15T12:46:32;14.00;99.60
17152;DHT22;8691;50.828;4.700;2023-02-15T12:49:06;14.10;99.90
17152;DHT22;8691;50.828;4.700;2023-02-15T12:51:32;14.10;99.40
17152;DHT22;8691;50.828;4.700;2023-02-15T12:53:59;14.40;99.10
17152;DHT22;8691;50.828;4.700;2023-02-15T12:56:26;14.40;99.10
17152;DHT22;8691;50.828;4.700;2023-02-15T12:59:03;14.30;98.60
17152;DHT22;8691;50.828;4.700;2023-02-15T13:01:21;14.20;99.10
17152;DHT22;8691;50.828;4.700;2023-02-15T13:03:59;14.20;98.80
17152;DHT22;8691;50.828;4.700;2023-02-15T13:06:25;14.20;99.10
17152;DHT22;8691;50.828;4.700;2023-02-15T13:08:57;14.10;99.40
17152;DHT22;8691;50.828;4.700;2023-02-15T13:11:24;14.10;99.40
17152;DHT22;8691;50.828;4.700;2023-02-15T13:13:55;14.10;99.30
17152;DHT22;8691;50.828;4.700;2023-02-15T13:18:54;14.20;99.80
17152;DHT22;8691;50.828;4.700;2023-02-15T13:21:25;14.20;99.70
17152;DHT22;8691;50.828;4.700;2023-02-15T13:23:55;14.20;99.60
17152;DHT22;8691;50.828;4.700;2023-02-15T13:26:21;14.30;99.70
17152;DHT22;8691;50.828;4.700;2023-02-15T13:28:48;14.10;99.60
17152;DHT22;8691;50.828;4.700;2023-02-15T13:31:22;13.90;99.60
17152;DHT22;8691;50.828;4.700;2023-02-15T13:36:33;14.00;99.90
17152;DHT22;8691;50.828;4.700;2023-02-15T13:47:32;14.10;99.90
17152;DHT22;8691;50.828;4.700;2023-02-15T13:50:10;14.10;99.90
17152;DHT22;8691;50.828;4.700;2023-02-15T13:52:34;14.10;99.90
17152;DHT22;8691;50.828;4.700;2023-02-15T13:55:18;14.10;99.90
17152;DHT22;8691;50.828;4.700;2023-02-15T14:03:39;14.10;99.90
17152;DHT22;8691;50.828;4.700;2023-02-15T14:06:23;14.10;99.90
17152;DHT22;8691;50.828;4.700;2023-02-15T14:09:09;14.10;99.90
17152;DHT22;8691;50.828;4.700;2023-02-15T14:17:08;14.10;99.90
17152;DHT22;8691;50.828;4.700;2023-02-15T14:19:42;14.10;99.90
17152;DHT22;8691;50.828;4.700;2023-02-15T14:25:05;14.00;99.90
17152;DHT22;8691;50.828;4.700;2023-02-15T14:28:03;14.00;99.90
17152;DHT22;8691;50.828;4.700;2023-02-15T14:30:25;13.90;99.90
17152;DHT22;8691;50.828;4.700;2023-02-15T14:32:59;13.90;99.90
17152;DHT22;8691;50.828;4.700;2023-02-15T14:35:24;13.90;99.90
17152;DHT22;8691;50.828;4.700;2023-02-15T14:43:57;13.80;99.90
17152;DHT22;8691;50.828;4.700;2023-02-15T14:49:15;13.60;99.90
17152;DHT22;8691;50.828;4.700;2023-02-15T14:54:52;13.50;99.90
17152;DHT22;8691;50.828;4.700;2023-02-15T14:56:38;13.50;99.90
17152;DHT22;8691;50.828;4.700;2023-02-15T15:01:38;13.20;99.90
17152;DHT22;8691;50.828;4.700;2023-02-15T15:04:05;13.30;99.90
17152;DHT22;8691;50.828;4.700;2023-02-15T15:06:32;13.30;99.90
17152;DHT22;8691;50.828;4.700;2023-02-15T15:09:29;13.20;99.90
17152;DHT22;8691;50.828;4.700;2023-02-15T15:11:44;13.30;99.90
17152;DHT22;8691;50.828;4.700;2023-02-15T15:14:07;13.30;99.90
17152;DHT22;8691;50.828;4.700;2023-02-15T15:19:07;13.30;99.90
17152;DHT22;8691;50.828;4.700;2023-02-15T15:41:53;12.70;99.90
17152;DHT22;8691;50.828;4.700;2023-02-15T15:49:20;12.50;99.90
17152;DHT22;8691;50.828;4.700;2023-02-15T15:51:44;12.50;99.90
17152;DHT22;8691;50.828;4.700;2023-02-15T15:54:17;12.40;99.90
17152;DHT22;8691;50.828;4.700;2023-02-15T15:56:44;12.40;99.90
17152;DHT22;8691;50.828;4.700;2023-02-15T15:59:18;12.20;99.90
17152;DHT22;8691;50.828;4.700;2023-02-15T16:01:44;12.20;99.90
17152;DHT22;8691;50.828;4.700;2023-02-15T16:04:14;12.10;99.90
17152;DHT22;8691;50.828;4.700;2023-02-15T16:06:40;12.00;99.90
17152;DHT22;8691;50.828;4.700;2023-02-15T16:09:17;12.00;99.90
17152;DHT22;8691;50.828;4.700;2023-02-15T16:11:43;11.90;99.90
17152;DHT22;8691;50.828;4.700;2023-02-15T16:14:57;11.80;99.90
17152;DHT22;8691;50.828;4.700;2023-02-15T16:16:48;11.70;99.90
17152;DHT22;8691;50.828;4.700;2023-02-15T16:19:19;11.60;99.90
17152;DHT22;8691;50.828;4.700;2023-02-15T16:21:41;11.60;99.90
17152;DHT22;8691;50.828;4.700;2023-02-15T16:29:37;11.30;99.90
17152;DHT22;8691;50.828;4.700;2023-02-15T16:32:23;11.20;99.90
17152;DHT22;8691;50.828;4.700;2023-02-15T16:34:56;11.10;99.90
17152;DHT22;8691;50.828;4.700;2023-02-15T16:37:23;11.00;99.90
17152;DHT22;8691;50.828;4.700;2023-02-15T16:39:49;10.80;99.90
17152;DHT22;8691;50.828;4.700;2023-02-15T16:42:16;10.70;99.90
17152;DHT22;8691;50.828;4.700;2023-02-15T16:44:43;10.60;99.90
17152;DHT22;8691;50.828;4.700;2023-02-15T16:47:16;10.40;99.90
17152;DHT22;8691;50.828;4.700;2023-02-15T16:49:46;10.40;99.90
17152;DHT22;8691;50.828;4.700;2023-02-15T16:52:13;10.30;99.90
17152;DHT22;8691;50.828;4.700;2023-02-15T16:54:39;10.30;99.90
17152;DHT22;8691;50.828;4.700;2023-02-15T16:57:06;10.20;99.90
17152;DHT22;8691;50.828;4.700;2023-02-15T16:59:38;10.10;99.90
17152;DHT22;8691;50.828;4.700;2023-02-15T17:01:59;9.90;99.90
17152;DHT22;8691;50.828;4.700;2023-02-15T17:04:28;9.80;99.90
17152;DHT22;8691;50.828;4.700;2023-02-15T17:07:14;9.60;99.90
17152;DHT22;8691;50.828;4.700;2023-02-15T17:09:33;9.30;99.90
17152;DHT22;8691;50.828;4.700;2023-02-15T17:11:59;9.30;99.90
17152;DHT22;8691;50.828;4.700;2023-02-15T17:14:32;9.20;99.90
17152;DHT22;8691;50.828;4.700;2023-02-15T17:17:01;9.10;99.90
17152;DHT22;8691;50.828;4.700;2023-02-15T17:19:32;9.10;99.90
17152;DHT22;8691;50.828;4.700;2023-02-15T17:21:56;9.00;99.90
17152;DHT22;8691;50.828;4.700;2023-02-15T17:26:58;8.80;99.90
17152;DHT22;8691;50.828;4.700;2023-02-15T17:31:51;8.70;99.90
17152;DHT22;8691;50.828;4.700;2023-02-15T17:37:14;8.60;99.90
17152;DHT22;8691;50.828;4.700;2023-02-15T17:39:39;8.50;99.90
17152;DHT22;8691;50.828;4.700;2023-02-15T17:42:06;8.50;99.90
17152;DHT22;8691;50.828;4.700;2023-02-15T17:44:33;8.50;99.90
17152;DHT22;8691;50.828;4.700;2023-02-15T17:47:00;8.50;99.90
17152;DHT22;8691;50.828;4.700;2023-02-15T17:49:26;8.50;99.90
17152;DHT22;8691;50.828;4.700;2023-02-15T17:51:53;8.50;99.90
17152;DHT22;8691;50.828;4.700;2023-02-15T17:57:01;8.50;99.90
17152;DHT22;8691;50.828;4.700;2023-02-15T17:59:30;8.50;99.90
17152;DHT22;8691;50.828;4.700;2023-02-15T18:01:58;8.70;99.90
17152;DHT22;8691;50.828;4.700;2023-02-15T18:04:43;8.70;99.90
17152;DHT22;8691;50.828;4.700;2023-02-15T18:07:28;8.70;99.90
17152;DHT22;8691;50.828;4.700;2023-02-15T18:10:14;8.70;99.90
17152;DHT22;8691;50.828;4.700;2023-02-15T18:12:57;8.70;99.90
17152;DHT22;8691;50.828;4.700;2023-02-15T18:15:24;8.80;99.90
17152;DHT22;8691;50.828;4.700;2023-02-15T18:17:51;8.80;99.90
17152;DHT22;8691;50.828;4.700;2023-02-15T18:20:18;8.80;99.90
17152;DHT22;8691;50.828;4.700;2023-02-15T18:22:44;8.70;99.90
17152;DHT22;8691;50.828;4.700;2023-02-15T18:25:15;8.70;99.90
17152;DHT22;8691;50.828;4.700;2023-02-15T18:27:37;8.60;99.90
17152;DHT22;8691;50.828;4.700;2023-02-15T18:30:05;8.60;99.90
17152;DHT22;8691;50.828;4.700;2023-02-15T18:32:32;8.50;99.90
17152;DHT22;8691;50.828;4.700;2023-02-15T18:34:57;8.50;99.90
17152;DHT22;8691;50.828;4.700;2023-02-15T18:37:25;8.50;99.90
17152;DHT22;8691;50.828;4.700;2023-02-15T18:39:50;8.50;99.90